sensor_id;sensor_type;location;lat;lon;timestamp;temperature;humidity
16064;DHT22;8136;53.172;8.256;2022-09-12T00:00:43;14.60;99.90
16064;DHT22;8136;53.172;8.256;2022-09-12T00:03:10;14.60;99.90
16064;DHT22;8136;53.172;8.256;2022-09-12T00:05:44;14.50;99.90
16064;DHT22;8136;53.172;8.256;2022-09-12T00:08:12;14.50;99.90
16064;DHT22;8136;53.172;8.256;2022-09-12T00:10:42;14.40;99.90
16064;DHT22;8136;53.172;8.256;2022-09-12T00:13:11;14.40;99.90
16064;DHT22;8136;53.172;8.256;2022-09-12T00:15:40;14.40;99.90
16064;DHT22;8136;53.172;8.256;2022-09-12T00:18:11;14.40;99.90
16064;DHT22;8136;53.172;8.256;2022-09-12T00:20:40;14.40;99.90
16064;DHT22;8136;53.172;8.256;2022-09-12T00:23:07;14.40;99.90
16064;DHT22;8136;53.172;8.256;2022-09-12T00:25:41;14.30;99.90
16064;DHT22;8136;53.172;8.256;2022-09-12T00:31:31;14.30;99.90
16064;DHT22;8136;53.172;8.256;2022-09-12T00:33:59;14.20;99.90
16064;DHT22;8136;53.172;8.256;2022-09-12T00:36:27;14.20;99.90
16064;DHT22;8136;53.172;8.256;2022-09-12T00:38:55;14.20;99.90
16064;DHT22;8136;53.172;8.256;2022-09-12T00:41:34;14.20;99.90
16064;DHT22;8136;53.172;8.256;2022-09-12T00:44:39;14.20;99.90
16064;DHT22;8136;53.172;8.256;2022-09-12T00:46:53;14.20;99.90
16064;DHT22;8136;53.172;8.256;2022-09-12T00:49:24;14.10;99.90
16064;DHT22;8136;53.172;8.256;2022-09-12T00:51:56;14.20;99.90
16064;DHT22;8136;53.172;8.256;2022-09-12T00:54:28;14.10;99.90
16064;DHT22;8136;53.172;8.256;2022-09-12T00:56:58;14.10;99.90
16064;DHT22;8136;53.172;8.256;2022-09-12T00:59:29;14.10;99.90
16064;DHT22;8136;53.172;8.256;2022-09-12T01:01:59;14.00;99.90
16064;DHT22;8136;53.172;8.256;2022-09-12T01:04:27;14.00;99.90
16064;DHT22;8136;53.172;8.256;2022-09-12T01:06:55;13.90;99.90
16064;DHT22;8136;53.172;8.256;2022-09-12T01:09:23;13.90;99.90
16064;DHT22;8136;53.172;8.256;2022-09-12T01:11:52;13.90;99.90
16064;DHT22;8136;53.172;8.256;2022-09-12T01:14:19;13.90;99.90
16064;DHT22;8136;53.172;8.256;2022-09-12T01:16:47;13.80;99.90
16064;DHT22;8136;53.172;8.256;2022-09-12T01:19:30;13.80;99.90
16064;DHT22;8136;53.172;8.256;2022-09-12T01:22:15;13.80;99.90
16064;DHT22;8136;53.172;8.256;2022-09-12T01:25:00;13.80;99.90
16064;DHT22;8136;53.172;8.256;2022-09-12T01:27:46;13.70;99.90
16064;DHT22;8136;53.172;8.256;2022-09-12T01:30:45;13.70;99.90
16064;DHT22;8136;53.172;8.256;2022-09-12T01:33:35;13.70;99.90
16064;DHT22;8136;53.172;8.256;2022-09-12T01:36:32;13.60;99.90
16064;DHT22;8136;53.172;8.256;2022-09-12T01:39:02;13.60;99.90
16064;DHT22;8136;53.172;8.256;2022-09-12T01:41:38;13.60;99.90
16064;DHT22;8136;53.172;8.256;2022-09-12T01:44:12;13.60;99.90
16064;DHT22;8136;53.172;8.256;2022-09-12T01:46:45;13.50;99.90
16064;DHT22;8136;53.172;8.256;2022-09-12T01:49:18;13.50;99.90
16064;DHT22;8136;53.172;8.256;2022-09-12T01:51:54;13.50;99.90
16064;DHT22;8136;53.172;8.256;2022-09-12T01:54:26;13.50;99.90
16064;DHT22;8136;53.172;8.256;2022-09-12T01:56:57;13.40;99.90
16064;DHT22;8136;53.172;8.256;2022-09-12T01:59:28;13.50;99.90
16064;DHT22;8136;53.172;8.256;2022-09-12T02:02:00;13.40;99.90
16064;DHT22;8136;53.172;8.256;2022-09-12T02:04:34;13.40;99.90
16064;DHT22;8136;53.172;8.256;2022-09-12T02:07:06;13.40;99.90
16064;DHT22;8136;53.172;8.256;2022-09-12T02:09:40;13.40;99.90
16064;DHT22;8136;53.172;8.256;2022-09-12T02:12:11;13.40;99.90
16064;DHT22;8136;53.172;8.256;2022-09-12T02:14:44;13.40;99.90
16064;DHT22;8136;53.172;8.256;2022-09-12T02:17:15;13.40;99.90
16064;DHT22;8136;53.172;8.256;2022-09-12T02:19:50;13.30;99.90
16064;DHT22;8136;53.172;8.256;2022-09-12T02:22:26;13.30;99.90
16064;DHT22;8136;53.172;8.256;2022-09-12T02:24:58;13.40;99.90
16064;DHT22;8136;53.172;8.256;2022-09-12T02:27:29;13.30;99.90
16064;DHT22;8136;53.172;8.256;2022-09-12T02:29:58;13.30;99.90
16064;DHT22;8136;53.172;8.256;2022-09-12T02:32:30;13.30;99.90
16064;DHT22;8136;53.172;8.256;2022-09-12T02:35:05;13.30;99.90
16064;DHT22;8136;53.172;8.256;2022-09-12T02:37:43;13.30;99.90
16064;DHT22;8136;53.172;8.256;2022-09-12T02:40:12;13.30;99.90
16064;DHT22;8136;53.172;8.256;2022-09-12T02:42:39;13.30;99.90
16064;DHT22;8136;53.172;8.256;2022-09-12T02:45:07;13.30;99.90
16064;DHT22;8136;53.172;8.256;2022-09-12T02:47:39;13.30;99.90
16064;DHT22;8136;53.172;8.256;2022-09-12T02:50:08;13.30;99.90
16064;DHT22;8136;53.172;8.256;2022-09-12T02:52:35;13.30;99.90
16064;DHT22;8136;53.172;8.256;2022-09-12T02:55:04;13.30;99.90
16064;DHT22;8136;53.172;8.256;2022-09-12T02:57:31;13.30;99.90
16064;DHT22;8136;53.172;8.256;2022-09-12T03:00:00;13.20;99.90
16064;DHT22;8136;53.172;8.256;2022-09-12T03:02:43;13.20;99.90
16064;DHT22;8136;53.172;8.256;2022-09-12T03:05:27;13.20;99.90
16064;DHT22;8136;53.172;8.256;2022-09-12T03:11:14;13.20;99.90
16064;DHT22;8136;53.172;8.256;2022-09-12T03:13:54;13.20;99.90
16064;DHT22;8136;53.172;8.256;2022-09-12T03:16:27;13.10;99.90
16064;DHT22;8136;53.172;8.256;2022-09-12T03:19:02;13.10;99.90
16064;DHT22;8136;53.172;8.256;2022-09-12T03:21:36;13.10;99.90
16064;DHT22;8136;53.172;8.256;2022-09-12T03:24:12;13.10;99.90
16064;DHT22;8136;53.172;8.256;2022-09-12T03:26:44;13.00;99.90
16064;DHT22;8136;53.172;8.256;2022-09-12T03:29:14;13.00;99.90
16064;DHT22;8136;53.172;8.256;2022-09-12T03:31:49;12.90;99.90
16064;DHT22;8136;53.172;8.256;2022-09-12T03:34:18;12.80;99.90
16064;DHT22;8136;53.172;8.256;2022-09-12T03:36:45;12.80;99.90
16064;DHT22;8136;53.172;8.256;2022-09-12T03:39:12;12.80;99.90
16064;DHT22;8136;53.172;8.256;2022-09-12T03:41:39;12.80;99.90
16064;DHT22;8136;53.172;8.256;2022-09-12T03:44:06;12.80;99.90
16064;DHT22;8136;53.172;8.256;2022-09-12T03:46:33;12.80;99.90
16064;DHT22;8136;53.172;8.256;2022-09-12T03:49:00;12.80;99.90
16064;DHT22;8136;53.172;8.256;2022-09-12T03:51:28;12.80;99.90
16064;DHT22;8136;53.172;8.256;2022-09-12T03:53:55;12.90;99.90
16064;DHT22;8136;53.172;8.256;2022-09-12T03:56:22;12.80;99.90
16064;DHT22;8136;53.172;8.256;2022-09-12T03:58:49;12.90;99.90
16064;DHT22;8136;53.172;8.256;2022-09-12T04:01:17;12.90;99.90
16064;DHT22;8136;53.172;8.256;2022-09-12T04:03:46;12.90;99.90
16064;DHT22;8136;53.172;8.256;2022-09-12T04:06:14;12.90;99.90
16064;DHT22;8136;53.172;8.256;2022-09-12T04:08:45;12.80;99.90
16064;DHT22;8136;53.172;8.256;2022-09-12T04:11:14;12.80;99.90
16064;DHT22;8136;53.172;8.256;2022-09-12T04:13:42;12.80;99.90
16064;DHT22;8136;53.172;8.256;2022-09-12T04:16:11;12.80;99.90
16064;DHT22;8136;53.172;8.256;2022-09-12T04:18:38;12.80;99.90
16064;DHT22;8136;53.172;8.256;2022-09-12T04:21:07;12.80;99.90
16064;DHT22;8136;53.172;8.256;2022-09-12T04:23:35;12.80;99.90
16064;DHT22;8136;53.172;8.256;2022-09-12T04:26:04;12.80;99.90
16064;DHT22;8136;53.172;8.256;2022-09-12T04:28:32;12.70;99.90
16064;DHT22;8136;53.172;8.256;2022-09-12T04:31:01;12.70;99.90
16064;DHT22;8136;53.172;8.256;2022-09-12T04:33:28;12.70;99.90
16064;DHT22;8136;53.172;8.256;2022-09-12T04:35:55;12.70;99.90
16064;DHT22;8136;53.172;8.256;2022-09-12T04:38:21;12.70;99.90
16064;DHT22;8136;53.172;8.256;2022-09-12T04:40:49;12.70;99.90
16064;DHT22;8136;53.172;8.256;2022-09-12T04:43:17;12.70;99.90
16064;DHT22;8136;53.172;8.256;2022-09-12T04:45:44;12.70;99.90
16064;DHT22;8136;53.172;8.256;2022-09-12T04:48:10;12.60;99.90
16064;DHT22;8136;53.172;8.256;2022-09-12T04:50:37;12.60;99.90
16064;DHT22;8136;53.172;8.256;2022-09-12T04:53:04;12.60;99.90
16064;DHT22;8136;53.172;8.256;2022-09-12T04:55:33;12.60;99.90
16064;DHT22;8136;53.172;8.256;2022-09-12T04:58:00;12.60;99.90
16064;DHT22;8136;53.172;8.256;2022-09-12T05:00:29;12.50;99.90
16064;DHT22;8136;53.172;8.256;2022-09-12T05:02:55;12.50;99.90
16064;DHT22;8136;53.172;8.256;2022-09-12T05:05:22;12.50;99.90
16064;DHT22;8136;53.172;8.256;2022-09-12T05:07:49;12.60;99.90
16064;DHT22;8136;53.172;8.256;2022-09-12T05:10:16;12.50;99.90
16064;DHT22;8136;53.172;8.256;2022-09-12T05:12:43;12.50;99.90
16064;DHT22;8136;53.172;8.256;2022-09-12T05:15:10;12.50;99.90
16064;DHT22;8136;53.172;8.256;2022-09-12T05:17:38;12.50;99.90
16064;DHT22;8136;53.172;8.256;2022-09-12T05:20:06;12.50;99.90
16064;DHT22;8136;53.172;8.256;2022-09-12T05:22:33;12.50;99.90
16064;DHT22;8136;53.172;8.256;2022-09-12T05:25:00;12.50;99.90
16064;DHT22;8136;53.172;8.256;2022-09-12T05:27:27;12.60;99.90
16064;DHT22;8136;53.172;8.256;2022-09-12T05:29:54;12.50;99.90
16064;DHT22;8136;53.172;8.256;2022-09-12T05:32:21;12.50;99.90
16064;DHT22;8136;53.172;8.256;2022-09-12T05:34:49;12.60;99.90
16064;DHT22;8136;53.172;8.256;2022-09-12T05:37:16;12.70;99.90
16064;DHT22;8136;53.172;8.256;2022-09-12T05:39:43;12.70;99.90
16064;DHT22;8136;53.172;8.256;2022-09-12T05:42:10;12.70;99.90
16064;DHT22;8136;53.172;8.256;2022-09-12T05:44:37;12.70;99.90
16064;DHT22;8136;53.172;8.256;2022-09-12T05:47:04;12.80;99.90
16064;DHT22;8136;53.172;8.256;2022-09-12T05:49:31;12.80;99.90
16064;DHT22;8136;53.172;8.256;2022-09-12T05:51:59;12.90;99.90
16064;DHT22;8136;53.172;8.256;2022-09-12T05:54:27;12.90;99.90
16064;DHT22;8136;53.172;8.256;2022-09-12T05:56:54;12.90;99.90
16064;DHT22;8136;53.172;8.256;2022-09-12T05:59:21;13.00;99.90
16064;DHT22;8136;53.172;8.256;2022-09-12T06:01:48;13.00;99.90
16064;DHT22;8136;53.172;8.256;2022-09-12T06:04:17;13.10;99.90
16064;DHT22;8136;53.172;8.256;2022-09-12T06:06:46;13.20;99.90
16064;DHT22;8136;53.172;8.256;2022-09-12T06:09:16;13.20;99.90
16064;DHT22;8136;53.172;8.256;2022-09-12T06:11:44;13.20;99.90
16064;DHT22;8136;53.172;8.256;2022-09-12T06:14:13;13.30;99.90
16064;DHT22;8136;53.172;8.256;2022-09-12T06:16:40;13.30;99.90
16064;DHT22;8136;53.172;8.256;2022-09-12T06:19:14;13.30;99.90
16064;DHT22;8136;53.172;8.256;2022-09-12T06:21:41;13.40;99.90
16064;DHT22;8136;53.172;8.256;2022-09-12T06:24:08;13.50;99.90
16064;DHT22;8136;53.172;8.256;2022-09-12T06:26:39;13.50;99.90
16064;DHT22;8136;53.172;8.256;2022-09-12T06:29:06;13.60;99.90
16064;DHT22;8136;53.172;8.256;2022-09-12T06:31:37;13.70;99.90
16064;DHT22;8136;53.172;8.256;2022-09-12T06:34:07;13.70;99.90
16064;DHT22;8136;53.172;8.256;2022-09-12T06:36:38;13.80;99.90
16064;DHT22;8136;53.172;8.256;2022-09-12T06:39:06;13.90;99.90
16064;DHT22;8136;53.172;8.256;2022-09-12T06:41:33;14.00;99.90
16064;DHT22;8136;53.172;8.256;2022-09-12T06:44:02;14.10;99.90
16064;DHT22;8136;53.172;8.256;2022-09-12T06:46:29;14.10;99.90
16064;DHT22;8136;53.172;8.256;2022-09-12T06:48:57;14.20;99.90
16064;DHT22;8136;53.172;8.256;2022-09-12T06:51:26;14.30;99.90
16064;DHT22;8136;53.172;8.256;2022-09-12T06:53:54;14.40;99.90
16064;DHT22;8136;53.172;8.256;2022-09-12T06:56:22;14.40;99.90
16064;DHT22;8136;53.172;8.256;2022-09-12T06:58:50;14.50;99.90
16064;DHT22;8136;53.172;8.256;2022-09-12T07:01:20;14.70;99.90
16064;DHT22;8136;53.172;8.256;2022-09-12T07:03:49;14.70;99.90
16064;DHT22;8136;53.172;8.256;2022-09-12T07:06:18;14.80;99.90
16064;DHT22;8136;53.172;8.256;2022-09-12T07:08:46;15.00;99.90
16064;DHT22;8136;53.172;8.256;2022-09-12T07:11:15;15.10;99.90
16064;DHT22;8136;53.172;8.256;2022-09-12T07:13:43;15.20;99.90
16064;DHT22;8136;53.172;8.256;2022-09-12T07:16:11;15.40;99.90
16064;DHT22;8136;53.172;8.256;2022-09-12T07:18:39;15.50;99.90
16064;DHT22;8136;53.172;8.256;2022-09-12T07:21:08;15.60;99.90
16064;DHT22;8136;53.172;8.256;2022-09-12T07:23:35;15.80;99.90
16064;DHT22;8136;53.172;8.256;2022-09-12T07:26:03;15.80;99.90
16064;DHT22;8136;53.172;8.256;2022-09-12T07:28:32;16.00;99.90
16064;DHT22;8136;53.172;8.256;2022-09-12T07:31:04;16.10;99.90
16064;DHT22;8136;53.172;8.256;2022-09-12T07:33:31;16.30;99.90
16064;DHT22;8136;53.172;8.256;2022-09-12T07:36:02;16.30;99.90
16064;DHT22;8136;53.172;8.256;2022-09-12T07:38:29;16.40;99.90
16064;DHT22;8136;53.172;8.256;2022-09-12T07:40:56;16.40;99.90
16064;DHT22;8136;53.172;8.256;2022-09-12T07:43:23;16.40;99.90
16064;DHT22;8136;53.172;8.256;2022-09-12T07:45:54;16.50;99.90
16064;DHT22;8136;53.172;8.256;2022-09-12T07:48:20;16.50;99.90
16064;DHT22;8136;53.172;8.256;2022-09-12T07:50:55;16.60;99.90
16064;DHT22;8136;53.172;8.256;2022-09-12T07:53:24;16.60;99.90
16064;DHT22;8136;53.172;8.256;2022-09-12T07:55:54;16.70;99.90
16064;DHT22;8136;53.172;8.256;2022-09-12T07:58:21;16.70;99.90
16064;DHT22;8136;53.172;8.256;2022-09-12T08:00:48;16.70;99.90
16064;DHT22;8136;53.172;8.256;2022-09-12T08:03:15;16.70;99.90
16064;DHT22;8136;53.172;8.256;2022-09-12T08:05:42;16.80;99.90
16064;DHT22;8136;53.172;8.256;2022-09-12T08:08:09;16.90;99.90
16064;DHT22;8136;53.172;8.256;2022-09-12T08:10:37;17.00;99.90
16064;DHT22;8136;53.172;8.256;2022-09-12T08:13:03;17.00;99.90
16064;DHT22;8136;53.172;8.256;2022-09-12T08:15:30;17.10;99.90
16064;DHT22;8136;53.172;8.256;2022-09-12T08:17:57;17.10;99.90
16064;DHT22;8136;53.172;8.256;2022-09-12T08:20:24;17.20;99.90
16064;DHT22;8136;53.172;8.256;2022-09-12T08:22:51;17.30;99.90
16064;DHT22;8136;53.172;8.256;2022-09-12T08:25:17;17.40;99.90
16064;DHT22;8136;53.172;8.256;2022-09-12T08:27:45;17.50;99.90
16064;DHT22;8136;53.172;8.256;2022-09-12T08:30:13;17.50;99.90
16064;DHT22;8136;53.172;8.256;2022-09-12T08:32:40;17.60;99.90
16064;DHT22;8136;53.172;8.256;2022-09-12T08:35:07;17.60;99.90
16064;DHT22;8136;53.172;8.256;2022-09-12T08:37:34;17.80;99.90
16064;DHT22;8136;53.172;8.256;2022-09-12T08:40:01;17.80;99.90
16064;DHT22;8136;53.172;8.256;2022-09-12T08:42:40;17.90;99.90
16064;DHT22;8136;53.172;8.256;2022-09-12T08:45:16;17.90;99.90
16064;DHT22;8136;53.172;8.256;2022-09-12T08:47:46;18.00;99.90
16064;DHT22;8136;53.172;8.256;2022-09-12T08:50:15;18.10;99.90
16064;DHT22;8136;53.172;8.256;2022-09-12T08:52:53;18.20;99.90
16064;DHT22;8136;53.172;8.256;2022-09-12T08:55:34;18.30;99.90
16064;DHT22;8136;53.172;8.256;2022-09-12T08:58:08;18.30;99.90
16064;DHT22;8136;53.172;8.256;2022-09-12T09:00:45;18.40;99.90
16064;DHT22;8136;53.172;8.256;2022-09-12T09:06:15;18.60;99.90
16064;DHT22;8136;53.172;8.256;2022-09-12T09:08:54;18.70;99.90
16064;DHT22;8136;53.172;8.256;2022-09-12T09:11:33;18.70;99.90
16064;DHT22;8136;53.172;8.256;2022-09-12T09:14:14;18.80;99.90
16064;DHT22;8136;53.172;8.256;2022-09-12T09:17:08;18.90;99.90
16064;DHT22;8136;53.172;8.256;2022-09-12T09:19:41;18.90;99.90
16064;DHT22;8136;53.172;8.256;2022-09-12T09:22:13;18.90;99.90
16064;DHT22;8136;53.172;8.256;2022-09-12T09:24:46;18.90;99.90
16064;DHT22;8136;53.172;8.256;2022-09-12T09:27:23;19.00;99.90
16064;DHT22;8136;53.172;8.256;2022-09-12T09:29:53;19.10;99.90
16064;DHT22;8136;53.172;8.256;2022-09-12T09:32:25;19.10;99.90
16064;DHT22;8136;53.172;8.256;2022-09-12T09:34:52;19.20;99.90
16064;DHT22;8136;53.172;8.256;2022-09-12T09:37:20;19.20;99.90
16064;DHT22;8136;53.172;8.256;2022-09-12T09:39:56;19.30;99.90
16064;DHT22;8136;53.172;8.256;2022-09-12T09:42:32;19.40;99.90
16064;DHT22;8136;53.172;8.256;2022-09-12T09:45:10;19.60;99.90
16064;DHT22;8136;53.172;8.256;2022-09-12T09:47:40;19.50;99.90
16064;DHT22;8136;53.172;8.256;2022-09-12T09:50:13;19.60;99.90
16064;DHT22;8136;53.172;8.256;2022-09-12T09:52:41;19.60;99.90
16064;DHT22;8136;53.172;8.256;2022-09-12T09:55:12;19.70;99.90
16064;DHT22;8136;53.172;8.256;2022-09-12T09:57:43;19.70;99.90
16064;DHT22;8136;53.172;8.256;2022-09-12T10:00:26;19.70;99.90
16064;DHT22;8136;53.172;8.256;2022-09-12T10:03:20;19.70;99.90
16064;DHT22;8136;53.172;8.256;2022-09-12T10:05:50;19.80;99.90
16064;DHT22;8136;53.172;8.256;2022-09-12T10:08:22;19.80;99.90
16064;DHT22;8136;53.172;8.256;2022-09-12T10:10:55;19.80;99.90
16064;DHT22;8136;53.172;8.256;2022-09-12T10:13:29;19.90;99.90
16064;DHT22;8136;53.172;8.256;2022-09-12T10:15:59;19.90;99.90
16064;DHT22;8136;53.172;8.256;2022-09-12T10:18:36;20.00;99.90
16064;DHT22;8136;53.172;8.256;2022-09-12T10:21:24;20.10;99.90
16064;DHT22;8136;53.172;8.256;2022-09-12T10:24:00;20.30;99.90
16064;DHT22;8136;53.172;8.256;2022-09-12T10:26:33;20.40;99.90
16064;DHT22;8136;53.172;8.256;2022-09-12T10:29:13;20.50;99.90
16064;DHT22;8136;53.172;8.256;2022-09-12T10:31:44;20.50;99.90
16064;DHT22;8136;53.172;8.256;2022-09-12T10:34:29;20.60;99.90
16064;DHT22;8136;53.172;8.256;2022-09-12T10:37:03;20.70;99.90
16064;DHT22;8136;53.172;8.256;2022-09-12T10:39:31;20.80;99.90
16064;DHT22;8136;53.172;8.256;2022-09-12T10:41:59;20.90;99.90
16064;DHT22;8136;53.172;8.256;2022-09-12T10:44:28;21.00;99.90
16064;DHT22;8136;53.172;8.256;2022-09-12T10:46:56;21.10;99.90
16064;DHT22;8136;53.172;8.256;2022-09-12T10:49:29;21.20;99.90
16064;DHT22;8136;53.172;8.256;2022-09-12T10:52:16;21.20;99.90
16064;DHT22;8136;53.172;8.256;2022-09-12T10:54:44;21.30;99.90
16064;DHT22;8136;53.172;8.256;2022-09-12T10:57:42;21.40;99.90
16064;DHT22;8136;53.172;8.256;2022-09-12T11:00:12;21.50;99.90
16064;DHT22;8136;53.172;8.256;2022-09-12T11:02:50;21.50;99.90
16064;DHT22;8136;53.172;8.256;2022-09-12T11:05:33;21.60;99.90
16064;DHT22;8136;53.172;8.256;2022-09-12T11:08:22;21.70;99.90
16064;DHT22;8136;53.172;8.256;2022-09-12T11:10:56;21.80;99.90
16064;DHT22;8136;53.172;8.256;2022-09-12T11:13:34;21.80;99.90
16064;DHT22;8136;53.172;8.256;2022-09-12T11:16:13;21.70;99.90
16064;DHT22;8136;53.172;8.256;2022-09-12T11:19:20;21.60;99.90
16064;DHT22;8136;53.172;8.256;2022-09-12T11:22:02;21.60;99.90
16064;DHT22;8136;53.172;8.256;2022-09-12T11:24:44;21.70;99.90
16064;DHT22;8136;53.172;8.256;2022-09-12T11:27:27;21.70;99.90
16064;DHT22;8136;53.172;8.256;2022-09-12T11:29:58;21.70;99.90
16064;DHT22;8136;53.172;8.256;2022-09-12T11:32:56;21.70;99.90
16064;DHT22;8136;53.172;8.256;2022-09-12T11:35:28;21.70;99.90
16064;DHT22;8136;53.172;8.256;2022-09-12T11:38:29;21.80;99.90
16064;DHT22;8136;53.172;8.256;2022-09-12T11:41:03;21.90;99.90
16064;DHT22;8136;53.172;8.256;2022-09-12T11:43:36;21.90;99.90
16064;DHT22;8136;53.172;8.256;2022-09-12T11:46:10;21.90;99.90
16064;DHT22;8136;53.172;8.256;2022-09-12T11:48:44;21.80;99.90
16064;DHT22;8136;53.172;8.256;2022-09-12T11:51:19;21.80;99.90
16064;DHT22;8136;53.172;8.256;2022-09-12T11:53:59;21.90;99.90
16064;DHT22;8136;53.172;8.256;2022-09-12T11:56:28;22.00;99.90
16064;DHT22;8136;53.172;8.256;2022-09-12T11:59:00;22.30;99.90
16064;DHT22;8136;53.172;8.256;2022-09-12T12:01:32;22.50;99.90
16064;DHT22;8136;53.172;8.256;2022-09-12T12:04:05;22.70;99.90
16064;DHT22;8136;53.172;8.256;2022-09-12T12:06:42;22.90;99.90
16064;DHT22;8136;53.172;8.256;2022-09-12T12:09:12;23.20;99.90
16064;DHT22;8136;53.172;8.256;2022-09-12T12:11:42;23.30;99.90
16064;DHT22;8136;53.172;8.256;2022-09-12T12:14:14;23.40;99.90
16064;DHT22;8136;53.172;8.256;2022-09-12T12:16:42;23.30;99.90
16064;DHT22;8136;53.172;8.256;2022-09-12T12:19:30;23.10;99.90
16064;DHT22;8136;53.172;8.256;2022-09-12T12:22:06;23.10;99.90
16064;DHT22;8136;53.172;8.256;2022-09-12T12:24:34;23.00;99.90
16064;DHT22;8136;53.172;8.256;2022-09-12T12:27:23;23.20;99.90
16064;DHT22;8136;53.172;8.256;2022-09-12T12:29:51;23.30;99.90
16064;DHT22;8136;53.172;8.256;2022-09-12T12:32:25;23.50;99.90
16064;DHT22;8136;53.172;8.256;2022-09-12T12:38:04;24.00;99.90
16064;DHT22;8136;53.172;8.256;2022-09-12T12:40:33;24.10;99.90
16064;DHT22;8136;53.172;8.256;2022-09-12T12:43:04;24.30;99.90
16064;DHT22;8136;53.172;8.256;2022-09-12T12:48:52;24.40;99.90
16064;DHT22;8136;53.172;8.256;2022-09-12T12:51:43;24.60;99.90
16064;DHT22;8136;53.172;8.256;2022-09-12T12:54:48;24.80;99.90
16064;DHT22;8136;53.172;8.256;2022-09-12T12:57:22;25.10;99.90
16064;DHT22;8136;53.172;8.256;2022-09-12T12:59:52;25.30;99.90
16064;DHT22;8136;53.172;8.256;2022-09-12T13:02:24;25.40;99.90
16064;DHT22;8136;53.172;8.256;2022-09-12T13:04:53;25.60;99.90
16064;DHT22;8136;53.172;8.256;2022-09-12T13:07:29;25.70;99.90
16064;DHT22;8136;53.172;8.256;2022-09-12T13:09:57;25.90;99.90
16064;DHT22;8136;53.172;8.256;2022-09-12T13:12:29;25.90;99.40
16064;DHT22;8136;53.172;8.256;2022-09-12T13:14:58;25.70;99.50
16064;DHT22;8136;53.172;8.256;2022-09-12T13:17:29;25.60;99.70
16064;DHT22;8136;53.172;8.256;2022-09-12T13:20:15;25.80;99.40
16064;DHT22;8136;53.172;8.256;2022-09-12T13:22:45;26.10;99.10
16064;DHT22;8136;53.172;8.256;2022-09-12T13:25:21;26.40;98.80
16064;DHT22;8136;53.172;8.256;2022-09-12T13:28:13;26.90;98.80
16064;DHT22;8136;53.172;8.256;2022-09-12T13:30:43;27.50;97.20
16064;DHT22;8136;53.172;8.256;2022-09-12T13:33:19;28.30;95.90
16064;DHT22;8136;53.172;8.256;2022-09-12T13:36:16;29.10;94.60
16064;DHT22;8136;53.172;8.256;2022-09-12T13:38:56;29.60;93.80
16064;DHT22;8136;53.172;8.256;2022-09-12T13:41:44;30.00;93.00
16064;DHT22;8136;53.172;8.256;2022-09-12T13:44:19;30.40;92.20
16064;DHT22;8136;53.172;8.256;2022-09-12T13:46:48;30.80;91.30
16064;DHT22;8136;53.172;8.256;2022-09-12T13:49:20;30.90;91.30
16064;DHT22;8136;53.172;8.256;2022-09-12T13:51:56;30.90;91.00
16064;DHT22;8136;53.172;8.256;2022-09-12T13:54:24;31.00;91.00
16064;DHT22;8136;53.172;8.256;2022-09-12T13:56:52;31.40;90.60
16064;DHT22;8136;53.172;8.256;2022-09-12T13:59:20;31.40;89.90
16064;DHT22;8136;53.172;8.256;2022-09-12T14:01:47;31.20;89.20
16064;DHT22;8136;53.172;8.256;2022-09-12T14:04:17;30.80;89.90
16064;DHT22;8136;53.172;8.256;2022-09-12T14:07:09;30.40;89.90
16064;DHT22;8136;53.172;8.256;2022-09-12T14:09:39;30.30;90.20
16064;DHT22;8136;53.172;8.256;2022-09-12T14:12:13;30.60;90.60
16064;DHT22;8136;53.172;8.256;2022-09-12T14:14:47;30.90;90.50
16064;DHT22;8136;53.172;8.256;2022-09-12T14:17:16;30.40;90.00
16064;DHT22;8136;53.172;8.256;2022-09-12T14:19:43;29.80;90.40
16064;DHT22;8136;53.172;8.256;2022-09-12T14:22:12;29.20;91.20
16064;DHT22;8136;53.172;8.256;2022-09-12T14:24:43;29.10;91.50
16064;DHT22;8136;53.172;8.256;2022-09-12T14:27:17;29.10;91.40
16064;DHT22;8136;53.172;8.256;2022-09-12T14:29:46;29.20;91.80
16064;DHT22;8136;53.172;8.256;2022-09-12T14:32:22;29.20;91.90
16064;DHT22;8136;53.172;8.256;2022-09-12T14:35:18;29.20;90.90
16064;DHT22;8136;53.172;8.256;2022-09-12T14:37:48;29.10;90.60
16064;DHT22;8136;53.172;8.256;2022-09-12T14:40:18;28.90;91.00
16064;DHT22;8136;53.172;8.256;2022-09-12T14:42:46;29.10;90.60
16064;DHT22;8136;53.172;8.256;2022-09-12T14:45:23;29.40;90.40
16064;DHT22;8136;53.172;8.256;2022-09-12T14:47:52;29.90;90.50
16064;DHT22;8136;53.172;8.256;2022-09-12T14:50:21;30.10;89.20
16064;DHT22;8136;53.172;8.256;2022-09-12T14:53:02;30.00;89.70
16064;DHT22;8136;53.172;8.256;2022-09-12T14:55:31;29.90;90.10
16064;DHT22;8136;53.172;8.256;2022-09-12T14:58:23;29.80;90.50
16064;DHT22;8136;53.172;8.256;2022-09-12T15:00:54;29.90;90.00
16064;DHT22;8136;53.172;8.256;2022-09-12T15:03:27;29.80;90.40
16064;DHT22;8136;53.172;8.256;2022-09-12T15:05:55;29.40;90.60
16064;DHT22;8136;53.172;8.256;2022-09-12T15:08:23;28.90;91.10
16064;DHT22;8136;53.172;8.256;2022-09-12T15:10:50;28.80;91.90
16064;DHT22;8136;53.172;8.256;2022-09-12T15:13:19;28.50;92.10
16064;DHT22;8136;53.172;8.256;2022-09-12T15:15:49;28.60;92.20
16064;DHT22;8136;53.172;8.256;2022-09-12T15:18:18;29.00;91.70
16064;DHT22;8136;53.172;8.256;2022-09-12T15:20:48;29.60;91.70
16064;DHT22;8136;53.172;8.256;2022-09-12T15:23:34;30.10;90.50
16064;DHT22;8136;53.172;8.256;2022-09-12T15:26:03;30.00;90.10
16064;DHT22;8136;53.172;8.256;2022-09-12T15:28:31;29.70;90.50
16064;DHT22;8136;53.172;8.256;2022-09-12T15:31:04;29.60;91.00
16064;DHT22;8136;53.172;8.256;2022-09-12T15:33:33;29.50;90.90
16064;DHT22;8136;53.172;8.256;2022-09-12T15:36:00;29.40;90.30
16064;DHT22;8136;53.172;8.256;2022-09-12T15:38:27;28.90;90.20
16064;DHT22;8136;53.172;8.256;2022-09-12T15:40:54;28.40;90.30
16064;DHT22;8136;53.172;8.256;2022-09-12T15:43:22;27.90;91.50
16064;DHT22;8136;53.172;8.256;2022-09-12T15:45:51;27.50;91.20
16064;DHT22;8136;53.172;8.256;2022-09-12T15:48:18;27.00;91.70
16064;DHT22;8136;53.172;8.256;2022-09-12T15:50:47;26.70;92.20
16064;DHT22;8136;53.172;8.256;2022-09-12T15:53:15;26.40;92.50
16064;DHT22;8136;53.172;8.256;2022-09-12T15:55:42;26.20;93.10
16064;DHT22;8136;53.172;8.256;2022-09-12T15:58:09;26.00;93.50
16064;DHT22;8136;53.172;8.256;2022-09-12T16:00:36;25.90;93.70
16064;DHT22;8136;53.172;8.256;2022-09-12T16:03:03;25.90;93.70
16064;DHT22;8136;53.172;8.256;2022-09-12T16:05:30;25.90;93.70
16064;DHT22;8136;53.172;8.256;2022-09-12T16:07:59;26.00;93.80
16064;DHT22;8136;53.172;8.256;2022-09-12T16:10:28;26.10;94.30
16064;DHT22;8136;53.172;8.256;2022-09-12T16:12:56;26.20;94.30
16064;DHT22;8136;53.172;8.256;2022-09-12T16:15:24;26.00;93.90
16064;DHT22;8136;53.172;8.256;2022-09-12T16:17:52;25.80;94.30
16064;DHT22;8136;53.172;8.256;2022-09-12T16:20:19;25.80;95.10
16064;DHT22;8136;53.172;8.256;2022-09-12T16:22:46;25.70;95.20
16064;DHT22;8136;53.172;8.256;2022-09-12T16:25:15;25.60;95.10
16064;DHT22;8136;53.172;8.256;2022-09-12T16:27:43;25.60;94.80
16064;DHT22;8136;53.172;8.256;2022-09-12T16:30:10;25.50;94.50